Time;durP1;ratioP1;P1;durP2;ratioP2;P2;SDS_P1;SDS_P2;PMS_P1;PMS_P2;Temp;Humidity;BMP_temperature;BMP_pressure;BME280_temperature;BME280_humidity;BME280_pressure;Samples;Min_cycle;Max_cycle;Signal;HPM_P1;HPM_P2
2022/10/25 03:18:11;;;;;;;9.48;6.55;;;16.80;99.90;;;;;;4585221;19;20496;-28
2022/10/25 03:19:50;;;;;;;8.98;7.05;;;16.80;99.90;;;;;;4588645;19;20026;-28
2022/10/25 03:21:21;;;;;;;9.35;7.03;;;16.80;99.90;;;;;;4588779;19;20014;-28
2022/10/25 03:22:52;;;;;;;8.70;7.55;;;16.80;99.90;;;;;;4590262;19;20010;-28
2022/10/25 03:24:23;;;;;;;9.38;7.05;;;16.80;99.90;;;;;;4589234;19;20033;-28
2022/10/25 03:25:55;;;;;;;9.27;7.22;;;16.80;99.90;;;;;;4588098;19;20097;-27
2022/10/25 03:27:27;;;;;;;9.57;7.53;;;16.90;99.90;;;;;;4589731;19;20115;-28
2022/10/25 03:28:59;;;;;;;9.55;7.03;;;16.90;99.90;;;;;;4588817;19;20010;-28
2022/10/25 03:30:30;;;;;;;10.82;7.55;;;16.90;99.90;;;;;;4589197;19;20484;-28
2022/10/25 03:32:02;;;;;;;8.38;6.40;;;16.90;99.90;;;;;;4588547;19;20018;-28
2022/10/25 03:33:33;;;;;;;8.45;6.63;;;16.90;99.90;;;;;;4587721;19;20010;-28
2022/10/25 03:35:05;;;;;;;8.90;6.75;;;16.90;99.90;;;;;;4589081;19;20070;-28
2022/10/25 03:36:36;;;;;;;8.75;7.20;;;16.90;99.90;;;;;;4588814;19;20015;-28
2022/10/25 03:38:07;;;;;;;9.48;7.72;;;16.90;99.90;;;;;;4590892;19;20027;-28
2022/10/25 03:39:39;;;;;;;8.30;6.70;;;16.90;99.90;;;;;;4594109;19;20017;-28
2022/10/25 03:41:10;;;;;;;7.65;6.57;;;16.90;99.90;;;;;;4593042;19;20066;-28
2022/10/25 03:42:42;;;;;;;8.20;7.18;;;16.90;99.90;;;;;;4591958;19;20027;-28
2022/10/25 03:44:13;;;;;;;7.80;6.68;;;16.90;99.90;;;;;;4592813;19;20039;-27
2022/10/25 03:46:05;;;;;;;10.00;6.75;;;16.90;99.90;;;;;;4592431;19;20523;-28
2022/10/25 03:47:36;;;;;;;8.70;6.72;;;16.90;99.90;;;;;;4592537;19;20434;-28
2022/10/25 03:49:07;;;;;;;10.35;7.50;;;16.90;99.90;;;;;;4592510;19;20344;-28
2022/10/25 03:50:39;;;;;;;8.80;7.22;;;16.90;99.90;;;;;;4592737;19;20049;-28
2022/10/25 03:52:10;;;;;;;8.75;6.50;;;16.90;99.90;;;;;;4592068;19;20031;-28
2022/10/25 03:53:42;;;;;;;7.93;7.13;;;16.80;99.90;;;;;;4591553;19;20538;-28
2022/10/25 03:55:14;;;;;;;10.30;7.72;;;16.90;99.90;;;;;;4593097;19;20489;-28
2022/10/25 03:56:45;;;;;;;8.68;7.72;;;16.90;99.90;;;;;;4592723;19;20015;-28
2022/10/25 03:58:18;;;;;;;;;;;16.90;99.90;;;;;;4593919;19;20010;-28
2022/10/25 03:59:49;;;;;;;;;;;16.80;99.90;;;;;;4594862;19;19974;-29
2022/10/25 04:01:20;;;;;;;10.50;7.15;;;16.80;99.90;;;;;;4592687;19;19926;-28
2022/10/25 04:02:53;;;;;;;9.05;7.55;;;16.90;99.90;;;;;;4592045;19;20028;-28
2022/10/25 04:04:24;;;;;;;8.38;7.47;;;16.80;99.90;;;;;;4591356;19;20018;-28
2022/10/25 04:05:55;;;;;;;9.55;7.85;;;16.90;99.90;;;;;;4593480;19;20480;-28
2022/10/25 04:07:29;;;;;;;10.98;8.40;;;16.80;99.90;;;;;;4592922;19;20043;-28
2022/10/25 04:09:00;;;;;;;12.05;8.02;;;16.90;99.90;;;;;;4591043;19;20027;-28
2022/10/25 04:10:32;;;;;;;11.82;9.18;;;16.90;99.90;;;;;;4593906;19;20033;-28
2022/10/25 04:12:06;;;;;;;;;;;16.90;99.90;;;;;;4593250;19;20022;-27
2022/10/25 04:13:41;;;;;;;10.38;9.15;;;17.00;99.90;;;;;;4592343;19;20328;-28
2022/10/25 04:15:13;;;;;;;11.70;10.50;;;17.00;99.90;;;;;;4591940;19;20019;-28
2022/10/25 04:18:31;;;;;;;13.90;11.70;;;17.00;99.90;;;;;;4587672;19;20018;-27
2022/10/25 04:20:02;;;;;;;12.70;11.27;;;17.00;99.90;;;;;;4593456;19;20019;-28
2022/10/25 04:21:35;;;;;;;14.40;12.32;;;17.00;99.90;;;;;;4592530;19;20390;-28
2022/10/25 04:23:07;;;;;;;15.95;14.32;;;17.00;99.90;;;;;;4593345;19;20017;-28
2022/10/25 04:24:39;;;;;;;16.98;15.30;;;17.00;99.90;;;;;;4592091;19;20018;-28
2022/10/25 04:26:10;;;;;;;16.25;14.50;;;16.90;99.90;;;;;;4593466;19;20070;-28
2022/10/25 04:27:42;;;;;;;16.08;14.48;;;16.90;99.90;;;;;;4593174;19;20018;-28
2022/10/25 04:29:16;;;;;;;17.30;14.07;;;16.80;99.90;;;;;;4593547;19;20474;-28
2022/10/25 04:30:47;;;;;;;15.57;14.07;;;16.90;99.90;;;;;;4592641;19;20066;-28
2022/10/25 04:32:20;;;;;;;15.90;14.40;;;16.80;99.90;;;;;;4590870;19;20082;-28
2022/10/25 04:33:52;;;;;;;16.35;14.75;;;16.90;99.90;;;;;;4593002;19;20014;-28
2022/10/25 04:35:23;;;;;;;16.85;15.15;;;16.80;99.90;;;;;;4592414;19;20025;-28
2022/10/25 04:36:55;;;;;;;16.90;15.20;;;16.80;99.90;;;;;;4592408;19;20340;-28
2022/10/25 04:38:26;;;;;;;16.02;14.55;;;16.90;99.90;;;;;;4591921;19;20014;-28
2022/10/25 04:39:57;;;;;;;15.65;14.23;;;16.90;99.90;;;;;;4591545;19;20031;-29
2022/10/25 04:41:29;;;;;;;15.95;14.35;;;16.80;99.90;;;;;;4591547;19;20010;-28
2022/10/25 04:43:01;;;;;;;15.50;14.10;;;16.80;99.90;;;;;;4592100;19;20019;-28
2022/10/25 04:44:32;;;;;;;17.25;15.45;;;16.80;99.90;;;;;;4593069;19;20761;-29
2022/10/25 04:46:03;;;;;;;18.10;16.30;;;16.80;99.90;;;;;;4591485;19;20011;-27
2022/10/25 04:47:34;;;;;;;18.00;16.20;;;16.80;99.90;;;;;;4592392;19;20330;-27
2022/10/25 04:49:05;;;;;;;18.73;16.92;;;16.80;99.90;;;;;;4590614;19;20087;-28
2022/10/25 04:50:36;;;;;;;19.17;17.05;;;16.80;99.90;;;;;;4590246;19;20018;-28
2022/10/25 04:52:07;;;;;;;18.98;17.00;;;16.80;99.90;;;;;;4592247;19;20326;-28
2022/10/25 04:53:39;;;;;;;18.50;16.60;;;16.80;99.90;;;;;;4590901;19;20019;-28
2022/10/25 04:55:10;;;;;;;18.58;16.88;;;16.80;99.90;;;;;;4592815;19;20010;-29
2022/10/25 04:56:41;;;;;;;20.00;17.95;;;16.80;99.90;;;;;;4591827;19;20015;-28
2022/10/25 04:58:12;;;;;;;18.15;16.13;;;16.80;99.90;;;;;;4592660;19;20019;-29
2022/10/25 04:59:43;;;;;;;17.95;16.33;;;16.80;99.90;;;;;;4591719;19;20048;-28
2022/10/25 05:01:15;;;;;;;18.75;15.18;;;16.80;99.90;;;;;;4592114;19;20014;-28
2022/10/25 05:02:46;;;;;;;15.60;14.05;;;16.80;99.90;;;;;;4591006;19;20495;-27
2022/10/25 05:04:17;;;;;;;15.30;13.82;;;16.70;99.90;;;;;;4590661;19;20160;-28
2022/10/25 05:05:49;;;;;;;13.85;12.55;;;16.80;99.90;;;;;;4592705;19;20079;-29
2022/10/25 05:07:21;;;;;;;12.13;10.93;;;16.70;99.90;;;;;;4591466;19;20349;-28
2022/10/25 05:08:52;;;;;;;11.18;9.63;;;16.70;99.90;;;;;;4591280;19;20014;-28
2022/10/25 05:10:23;;;;;;;;;;;16.70;99.90;;;;;;4592050;19;20018;-27
2022/10/25 05:11:55;;;;;;;9.27;8.23;;;16.70;99.90;;;;;;4592343;19;20325;-28
2022/10/25 05:13:29;;;;;;;10.57;8.05;;;16.80;99.90;;;;;;4591931;19;20022;-28
2022/10/25 05:15:01;;;;;;;10.25;8.50;;;16.80;99.90;;;;;;4591119;19;20019;-28
2022/10/25 05:16:34;;;;;;;11.68;8.80;;;16.80;99.90;;;;;;4592119;19;20022;-28
2022/10/25 05:18:05;;;;;;;9.63;7.80;;;16.80;99.90;;;;;;4589000;19;20014;-28
2022/10/25 05:27:43;;;;;;;12.32;10.30;;;16.70;99.90;;;;;;4592558;19;20006;-27
2022/10/25 05:29:15;;;;;;;11.75;10.52;;;16.70;99.90;;;;;;4591154;19;20017;-28
2022/10/25 05:30:46;;;;;;;10.85;9.75;;;16.70;99.90;;;;;;4591391;19;20040;-27
2022/10/25 05:32:19;;;;;;;10.50;9.38;;;16.70;99.90;;;;;;4590578;19;20022;-27
2022/10/25 05:33:59;;;;;;;12.43;9.35;;;16.70;99.90;;;;;;4590798;19;20074;-27
2022/10/25 05:35:30;;;;;;;10.63;8.85;;;16.70;99.90;;;;;;4591489;19;20480;-26
2022/10/25 05:37:01;;;;;;;13.43;12.02;;;16.70;99.90;;;;;;4588473;19;20019;-27
2022/10/25 05:38:32;;;;;;;15.80;14.10;;;16.70;99.90;;;;;;4591609;19;20007;-27
2022/10/25 05:40:04;;;;;;;;;;;16.80;99.90;;;;;;4592302;19;20472;-26
2022/10/25 05:41:35;;;;;;;21.48;17.08;;;16.80;99.90;;;;;;4591699;19;19974;-28
2022/10/25 05:43:06;;;;;;;21.67;16.33;;;16.90;99.90;;;;;;4589455;19;20089;-26
2022/10/25 05:44:37;;;;;;;23.95;17.08;;;16.90;99.90;;;;;;4591063;19;20014;-27
2022/10/25 05:46:11;;;;;;;24.15;17.33;;;17.00;99.90;;;;;;4590306;19;20006;-27
2022/10/25 05:47:43;;;;;;;17.23;14.70;;;17.00;99.90;;;;;;4590954;19;20043;-28
2022/10/25 05:49:14;;;;;;;19.73;14.60;;;17.10;99.90;;;;;;4591058;19;20022;-27
2022/10/25 05:50:45;;;;;;;18.23;14.38;;;17.10;99.90;;;;;;4588648;19;20069;-27
2022/10/25 05:52:16;;;;;;;19.67;13.90;;;17.10;99.90;;;;;;4590564;19;20003;-27
2022/10/25 05:53:49;;;;;;;18.15;13.40;;;17.20;99.90;;;;;;4589332;19;20018;-27
2022/10/25 05:55:20;;;;;;;15.15;11.57;;;17.20;99.90;;;;;;4590514;19;20011;-27
2022/10/25 05:56:51;;;;;;;12.48;9.45;;;17.30;99.90;;;;;;4590004;19;20085;-29
2022/10/25 05:58:23;;;;;;;9.70;8.70;;;17.30;99.90;;;;;;4592176;19;20081;-28
2022/10/25 05:59:54;;;;;;;12.90;9.80;;;17.30;99.90;;;;;;4590639;19;20007;-28
2022/10/25 06:01:26;;;;;;;11.60;9.15;;;17.30;99.90;;;;;;4589284;19;20091;-28
2022/10/25 06:03:00;;;;;;;11.80;10.60;;;17.30;99.90;;;;;;4590309;19;20117;-28
2022/10/25 06:04:32;;;;;;;11.82;10.77;;;16.00;99.90;;;;;;4590630;19;20022;-27
2022/10/25 06:06:05;;;;;;;13.75;11.50;;;15.30;99.90;;;;;;4589453;19;20010;-28
2022/10/25 06:07:35;;;;;;;14.57;12.15;;;15.00;99.90;;;;;;4590108;19;20018;-28
2022/10/25 06:09:07;;;;;;;14.57;13.18;;;14.90;99.90;;;;;;4590906;19;20491;-27
2022/10/25 06:10:38;;;;;;;15.23;13.65;;;14.80;99.90;;;;;;4590427;19;20006;-28
2022/10/25 06:12:09;;;;;;;16.25;14.55;;;14.80;99.90;;;;;;4590763;19;20015;-28
2022/10/25 06:13:40;;;;;;;16.70;15.00;;;14.80;99.90;;;;;;4590895;19;20014;-27
2022/10/25 06:15:11;;;;;;;19.90;17.45;;;14.80;99.90;;;;;;4589262;19;20078;-26
2022/10/25 06:16:42;;;;;;;17.67;15.85;;;14.80;99.90;;;;;;4589933;19;20013;-27
2022/10/25 06:18:13;;;;;;;17.05;15.20;;;14.80;99.90;;;;;;4590428;19;20337;-26
2022/10/25 06:19:44;;;;;;;18.52;16.70;;;14.80;99.90;;;;;;4589510;19;20027;-27
2022/10/25 06:21:20;;;;;;;23.08;20.75;;;14.80;99.90;;;;;;4589945;19;20018;-27
2022/10/25 06:22:51;;;;;;;22.98;20.73;;;14.90;99.90;;;;;;4589280;19;20043;-27
2022/10/25 06:24:22;;;;;;;20.30;18.30;;;14.90;99.90;;;;;;4589355;19;20049;-27
2022/10/25 06:25:58;;;;;;;16.27;14.68;;;14.90;99.90;;;;;;4590316;19;20011;-27
2022/10/25 06:27:29;;;;;;;17.15;15.35;;;14.90;99.90;;;;;;4590173;19;20015;-27
2022/10/25 06:50:08;;;;;;;13.38;12.07;;;14.90;99.90;;;;;;4589586;19;20009;-28
2022/10/25 06:51:39;;;;;;;12.98;11.18;;;15.00;99.90;;;;;;4588697;19;20021;-27
2022/10/25 06:53:10;;;;;;;12.43;11.13;;;15.00;99.90;;;;;;4588955;19;20010;-27
2022/10/25 06:54:41;;;;;;;12.02;10.45;;;15.00;99.90;;;;;;4588409;19;20047;-28
2022/10/25 06:56:13;;;;;;;13.07;11.25;;;15.00;99.90;;;;;;4589572;19;20535;-28
2022/10/25 06:57:44;;;;;;;13.25;11.52;;;15.00;99.90;;;;;;4587965;19;20015;-27
2022/10/25 06:59:15;;;;;;;14.30;12.43;;;15.00;99.90;;;;;;4589450;19;20015;-27
2022/10/25 07:00:46;;;;;;;14.10;12.60;;;15.00;99.90;;;;;;4591096;19;20011;-28
2022/10/25 07:02:17;;;;;;;13.63;12.25;;;15.00;99.90;;;;;;4588710;19;20018;-28
2022/10/25 07:03:49;;;;;;;14.50;12.52;;;15.00;99.90;;;;;;4588887;19;20455;-27
2022/10/25 07:05:21;;;;;;;19.05;17.02;;;15.10;99.90;;;;;;4588093;19;20007;-28
2022/10/25 07:06:53;;;;;;;21.10;19.00;;;15.00;99.90;;;;;;4588275;19;20516;-28
2022/10/25 07:08:24;;;;;;;21.73;19.45;;;15.00;99.90;;;;;;4589100;19;20010;-27
2022/10/25 07:09:55;;;;;;;21.48;19.25;;;15.10;99.90;;;;;;4590136;19;20003;-28
2022/10/25 07:11:28;;;;;;;18.65;16.30;;;15.10;99.90;;;;;;4588258;19;20018;-28
2022/10/25 07:12:58;;;;;;;17.13;13.93;;;15.10;99.90;;;;;;4590671;19;20025;-28
2022/10/25 08:48:14;;;;;;;19.92;16.48;;;15.30;99.90;;;;;;4590132;19;20074;-28
2022/10/25 08:50:05;;;;;;;20.15;16.83;;;15.30;99.90;;;;;;4590941;19;20062;-28
2022/10/25 08:51:38;;;;;;;17.00;14.23;;;15.30;99.90;;;;;;4591587;19;20002;-28
2022/10/25 08:53:15;;;;;;;17.33;14.15;;;15.30;99.90;;;;;;4591740;19;20501;-28
2022/10/25 08:54:47;;;;;;;19.52;15.23;;;15.30;99.90;;;;;;4589934;19;20523;-28
2022/10/25 08:56:18;;;;;;;17.50;15.02;;;15.40;99.90;;;;;;4592304;19;20066;-28
2022/10/25 08:57:49;;;;;;;17.60;14.82;;;15.40;99.90;;;;;;4578898;19;20039;-28
2022/10/25 08:59:27;;;;;;;17.60;14.13;;;15.40;99.90;;;;;;4576111;19;20081;-28
2022/10/25 09:01:00;;;;;;;16.83;13.73;;;15.40;99.90;;;;;;4574983;19;20010;-27
2022/10/25 09:02:41;;;;;;;15.95;13.48;;;15.40;99.90;;;;;;4578830;19;20498;-28
2022/10/25 09:04:14;;;;;;;17.98;13.20;;;15.40;99.90;;;;;;4574136;19;20015;-28
2022/10/25 09:05:53;;;;;;;15.90;12.43;;;15.40;99.90;;;;;;4580069;19;20017;-28
2022/10/25 09:07:29;;;;;;;16.65;14.00;;;15.40;99.90;;;;;;4584333;19;20378;-28
2022/10/25 09:09:38;;;;;;;18.40;15.43;;;15.40;99.90;;;;;;4576433;19;20022;-28
2022/10/25 09:11:25;;;;;;;16.52;14.63;;;15.40;99.90;;;;;;4573607;19;20022;-28
2022/10/25 09:13:25;;;;;;;16.98;14.25;;;15.40;99.90;;;;;;4574876;19;20014;-28
2022/10/25 09:15:14;;;;;;;16.30;13.52;;;15.40;99.90;;;;;;4588389;19;20734;-28
2022/10/25 09:16:53;;;;;;;16.98;12.85;;;15.40;99.90;;;;;;4576430;19;20547;-28
2022/10/25 09:18:34;;;;;;;16.08;14.02;;;15.50;99.90;;;;;;4579803;19;20105;-28
2022/10/25 09:20:32;;;;;;;15.77;13.63;;;15.50;99.90;;;;;;4583193;19;20047;-29
2022/10/25 09:22:16;;;;;;;18.08;15.27;;;15.50;99.90;;;;;;4579975;19;21418;-28
2022/10/25 09:24:07;;;;;;;15.05;13.38;;;15.50;99.90;;;;;;4577674;19;20679;-28
2022/10/25 09:26:01;;;;;;;14.45;12.95;;;15.50;99.90;;;;;;4574946;19;20010;-27
2022/10/25 09:27:33;;;;;;;14.55;12.73;;;15.50;99.90;;;;;;4572645;19;20045;-28
2022/10/25 09:29:19;;;;;;;14.93;13.02;;;15.50;99.90;;;;;;4585273;19;20025;-27
2022/10/25 09:30:50;;;;;;;15.40;13.65;;;15.50;99.90;;;;;;4588146;19;20019;-28
2022/10/25 09:32:23;;;;;;;;;;;15.60;99.90;;;;;;4588747;19;20095;-27
2022/10/25 09:33:58;;;;;;;;;;;15.60;99.90;;;;;;4589644;19;19936;-27
2022/10/25 09:35:42;;;;;;;16.17;13.80;;;15.60;99.90;;;;;;4587813;19;19914;-27
2022/10/25 09:37:27;;;;;;;15.50;13.15;;;15.60;99.90;;;;;;4587970;19;20018;-28
2022/10/25 09:39:00;;;;;;;15.18;13.20;;;15.60;99.90;;;;;;4582630;19;20024;-27
2022/10/25 09:41:08;;;;;;;14.02;12.23;;;15.60;99.90;;;;;;4582646;19;20505;-27
2022/10/25 09:42:47;;;;;;;15.60;12.77;;;15.60;99.90;;;;;;4583721;19;20469;-27
2022/10/25 09:44:33;;;;;;;15.80;12.77;;;15.60;99.90;;;;;;4579250;19;20038;-27
2022/10/25 09:46:12;;;;;;;15.45;13.75;;;15.60;99.90;;;;;;4589794;19;20524;-27
2022/10/25 09:49:48;;;;;;;14.15;12.55;;;15.60;99.90;;;;;;4586581;19;20025;-28
2022/10/25 09:51:43;;;;;;;13.43;11.93;;;15.60;99.90;;;;;;4588865;19;20094;-28
2022/10/25 09:53:17;;;;;;;13.93;11.50;;;15.70;99.90;;;;;;4588254;19;20536;-28
2022/10/25 09:55:13;;;;;;;11.80;10.52;;;15.80;99.90;;;;;;4588762;19;20043;-27
2022/10/25 09:56:44;;;;;;;12.27;9.88;;;15.90;99.90;;;;;;4588992;19;20004;-28
2022/10/25 09:58:25;;;;;;;12.63;9.35;;;16.00;99.90;;;;;;4586682;19;20527;-28
2022/10/25 09:59:56;;;;;;;12.32;8.98;;;16.10;99.90;;;;;;4588003;19;20013;-29
2022/10/25 10:01:27;;;;;;;9.52;8.32;;;16.20;99.90;;;;;;4588284;19;20017;-27
2022/10/25 10:03:02;;;;;;;10.68;9.13;;;16.20;99.90;;;;;;4588104;19;20014;-27
2022/10/25 10:04:34;;;;;;;10.40;8.93;;;16.30;99.90;;;;;;4588008;19;20472;-27
2022/10/25 10:06:20;;;;;;;11.45;8.10;;;16.30;99.90;;;;;;4587941;19;20040;-28
2022/10/25 10:07:53;;;;;;;7.05;6.18;;;16.30;99.90;;;;;;4588419;19;20015;-28
2022/10/25 10:09:24;;;;;;;7.22;6.07;;;16.50;99.90;;;;;;4588151;19;20480;-28
2022/10/25 10:10:56;;;;;;;10.32;8.02;;;16.70;99.90;;;;;;4587664;19;20012;-26
2022/10/25 10:12:46;;;;;;;10.32;6.70;;;16.70;99.90;;;;;;4587636;19;20040;-26
2022/10/25 10:14:26;;;;;;;6.70;5.80;;;16.70;99.90;;;;;;4588112;19;20025;-27
2022/10/25 10:16:01;;;;;;;9.98;6.80;;;16.70;99.90;;;;;;4588202;19;20015;-26
2022/10/25 10:17:33;;;;;;;8.68;5.85;;;16.70;99.90;;;;;;4587552;19;20015;-26
2022/10/25 10:19:23;;;;;;;7.55;6.10;;;16.70;99.90;;;;;;4588352;19;20019;-28
2022/10/25 10:21:09;;;;;;;9.15;6.20;;;16.70;99.90;;;;;;4587986;19;20020;-28
2022/10/25 10:22:58;;;;;;;9.32;5.85;;;16.70;99.90;;;;;;4587775;19;20014;-27
2022/10/25 10:24:40;;;;;;;9.57;6.45;;;16.70;99.90;;;;;;4588142;19;20018;-27
2022/10/25 10:26:14;;;;;;;8.02;6.13;;;16.70;99.90;;;;;;4587741;19;20441;-28
2022/10/25 10:27:49;;;;;;;10.43;6.22;;;16.60;99.90;;;;;;4587883;19;20010;-27
2022/10/25 10:29:21;;;;;;;7.88;6.40;;;16.60;99.90;;;;;;4587525;19;20450;-28
2022/10/25 10:30:54;;;;;;;9.25;6.25;;;16.60;99.90;;;;;;4587520;19;20015;-26
2022/10/25 10:32:26;;;;;;;12.73;6.57;;;16.60;99.90;;;;;;4587703;19;20018;-26
2022/10/25 10:33:59;;;;;;;9.38;6.30;;;16.60;99.90;;;;;;4587729;19;20505;-27
2022/10/25 10:35:35;;;;;;;9.05;6.10;;;16.60;99.90;;;;;;4587491;19;20011;-27
2022/10/25 10:37:26;;;;;;;9.57;7.45;;;16.60;99.90;;;;;;4588196;19;20362;-28
2022/10/25 10:39:20;;;;;;;13.05;9.15;;;16.60;99.90;;;;;;4587947;19;20018;-27
2022/10/25 10:41:13;;;;;;;13.38;8.10;;;16.60;99.90;;;;;;4588107;19;20459;-26
2022/10/25 10:42:44;;;;;;;9.70;6.45;;;16.60;99.90;;;;;;4586661;19;20010;-27
2022/10/25 10:44:15;;;;;;;8.73;6.63;;;16.60;99.90;;;;;;4587960;19;20014;-26
2022/10/25 10:45:50;;;;;;;11.10;6.20;;;16.70;99.90;;;;;;4586722;19;20046;-27
2022/10/25 10:47:21;;;;;;;8.95;5.45;;;16.60;99.90;;;;;;4586853;19;20015;-27
2022/10/25 10:48:55;;;;;;;9.63;6.38;;;16.70;99.90;;;;;;4590961;19;20007;-27
2022/10/25 10:57:32;;;;;;;12.80;8.48;;;16.70;99.90;;;;;;4591184;19;20337;-27
2022/10/25 10:59:04;;;;;;;10.30;8.52;;;16.70;99.90;;;;;;4592133;19;20060;-28
2022/10/25 11:00:35;;;;;;;11.35;8.75;;;16.70;99.90;;;;;;4592555;19;20014;-27
2022/10/25 11:02:33;;;;;;;10.65;8.55;;;16.70;99.90;;;;;;4591675;19;20010;-27
2022/10/25 11:04:04;;;;;;;10.88;8.57;;;16.70;99.90;;;;;;4591871;19;20497;-27
2022/10/25 11:05:37;;;;;;;13.13;9.38;;;16.70;99.90;;;;;;4591973;19;20355;-27
2022/10/25 11:07:13;;;;;;;14.32;8.48;;;16.70;99.90;;;;;;4592003;19;20022;-28
2022/10/25 11:08:45;;;;;;;13.93;8.85;;;16.70;99.90;;;;;;4591199;19;20085;-28
2022/10/25 11:10:19;;;;;;;10.88;8.07;;;16.70;99.90;;;;;;4591848;19;20019;-28
2022/10/25 11:12:09;;;;;;;10.02;7.32;;;16.70;99.90;;;;;;4592118;19;20464;-28
2022/10/25 11:13:45;;;;;;;9.70;7.38;;;16.70;99.90;;;;;;4591876;19;20003;-27
2022/10/25 11:15:17;;;;;;;10.65;7.43;;;16.70;99.90;;;;;;4591225;19;20125;-27
2022/10/25 11:17:12;;;;;;;8.57;7.30;;;16.70;99.90;;;;;;4591603;19;20006;-26
2022/10/25 11:18:54;;;;;;;10.63;7.28;;;16.70;99.90;;;;;;4591793;19;20006;-29
2022/10/25 11:20:32;;;;;;;10.75;7.60;;;16.70;99.90;;;;;;4591671;19;20507;-27
2022/10/25 11:22:26;;;;;;;10.60;6.63;;;16.70;99.90;;;;;;4591804;19;20007;-27
2022/10/25 11:24:34;;;;;;;11.23;6.30;;;16.70;99.90;;;;;;4591370;19;20010;-28
2022/10/25 11:26:21;;;;;;;8.93;6.65;;;16.70;99.90;;;;;;4592068;19;20130;-27
2022/10/25 11:28:16;;;;;;;9.52;5.00;;;16.70;99.90;;;;;;4591629;19;20011;-27
2022/10/25 11:30:10;;;;;;;8.35;5.70;;;16.70;99.90;;;;;;4591480;19;20018;-28
2022/10/25 11:32:07;;;;;;;10.30;5.13;;;16.70;99.90;;;;;;4591265;19;20006;-28
2022/10/25 11:34:10;;;;;;;6.97;5.55;;;16.70;99.90;;;;;;4591478;19;20653;-28
2022/10/25 11:35:44;;;;;;;6.88;5.60;;;16.70;99.90;;;;;;4590786;19;20017;-27
2022/10/25 11:37:15;;;;;;;8.02;5.75;;;16.70;99.90;;;;;;4590555;19;20015;-27
2022/10/25 11:39:04;;;;;;;9.80;5.88;;;16.70;99.90;;;;;;4591585;19;20056;-27
2022/10/25 11:40:40;;;;;;;10.93;6.22;;;16.70;99.90;;;;;;4591364;19;20125;-27
2022/10/25 11:42:13;;;;;;;9.65;6.93;;;16.70;99.90;;;;;;4590622;19;20086;-27
2022/10/25 11:43:51;;;;;;;13.40;7.18;;;16.70;99.90;;;;;;4591077;19;20039;-27
2022/10/25 11:45:43;;;;;;;13.35;8.77;;;16.70;99.90;;;;;;4591166;19;20015;-27
2022/10/25 11:47:36;;;;;;;11.15;7.95;;;16.70;99.90;;;;;;4591023;19;20014;-27
2022/10/25 11:49:32;;;;;;;12.88;8.93;;;16.70;99.90;;;;;;4590620;19;20017;-28
2022/10/25 11:51:12;;;;;;;16.60;11.45;;;16.70;99.90;;;;;;4591273;19;20014;-28
2022/10/25 11:52:49;;;;;;;17.02;13.02;;;16.70;99.90;;;;;;4591174;19;20010;-28
2022/10/25 11:54:25;;;;;;;16.73;12.63;;;16.70;99.90;;;;;;4591191;19;20010;-27
2022/10/25 11:56:17;;;;;;;17.30;12.98;;;16.70;99.90;;;;;;4590829;19;20437;-28
2022/10/25 12:26:01;;;;;;;16.60;12.32;;;16.70;99.90;;;;;;4592368;19;19998;-28
2022/10/25 12:27:32;;;;;;;15.30;12.45;;;16.70;99.90;;;;;;4591595;19;20018;-28
2022/10/25 12:29:04;;;;;;;15.77;12.38;;;16.70;99.90;;;;;;4592351;19;20014;-28
2022/10/25 12:30:35;;;;;;;14.73;11.88;;;16.70;99.90;;;;;;4591347;19;20014;-28
2022/10/25 12:32:17;;;;;;;13.95;11.45;;;16.70;99.90;;;;;;4591397;19;20494;-28
2022/10/25 12:34:12;;;;;;;19.75;12.95;;;16.70;99.90;;;;;;4591401;19;20027;-28
2022/10/25 12:35:47;;;;;;;13.73;11.95;;;16.70;99.90;;;;;;4591127;19;20356;-27
2022/10/25 12:37:42;;;;;;;14.80;11.90;;;16.70;99.90;;;;;;4590793;19;20510;-28
2022/10/25 12:39:18;;;;;;;13.80;12.25;;;16.80;99.90;;;;;;4591907;19;20006;-27
2022/10/25 12:40:50;;;;;;;14.10;12.60;;;16.80;99.90;;;;;;4592052;19;19999;-28
2022/10/25 12:42:22;;;;;;;17.88;13.63;;;16.80;99.90;;;;;;4591640;19;20475;-27
2022/10/25 12:44:28;;;;;;;14.32;12.85;;;16.80;99.90;;;;;;4590836;19;20368;-27
2022/10/25 12:46:10;;;;;;;12.20;10.75;;;17.00;99.90;;;;;;4590937;19;20047;-27
2022/10/25 12:48:09;;;;;;;15.55;11.93;;;17.00;99.90;;;;;;4589385;19;20018;-27
2022/10/25 12:50:01;;;;;;;15.13;13.20;;;17.10;99.90;;;;;;4588486;19;20347;-27
2022/10/25 12:52:04;;;;;;;14.18;12.65;;;17.10;99.90;;;;;;4589530;19;20006;-27
2022/10/25 12:54:07;;;;;;;17.13;15.10;;;17.10;99.90;;;;;;4590483;19;20070;-28
2022/10/25 12:56:08;;;;;;;17.38;15.00;;;17.20;99.90;;;;;;4591775;19;20392;-27
2022/10/25 12:58:09;;;;;;;17.80;13.07;;;17.10;99.90;;;;;;4589551;19;20064;-28
2022/10/25 12:59:48;;;;;;;14.02;11.20;;;17.30;99.90;;;;;;4589792;19;20356;-27
2022/10/25 13:01:30;;;;;;;13.45;11.30;;;17.30;99.90;;;;;;4591053;19;20044;-28
2022/10/25 13:03:23;;;;;;;13.40;11.27;;;17.40;99.90;;;;;;4589525;19;20035;-28
2022/10/25 13:04:59;;;;;;;11.32;10.23;;;17.30;99.90;;;;;;4587891;19;20032;-28
2022/10/25 13:06:35;;;;;;;11.43;9.65;;;17.30;99.90;;;;;;4589295;19;20488;-28
2022/10/25 13:08:06;;;;;;;11.77;10.57;;;17.20;99.90;;;;;;4589602;19;20345;-27
2022/10/25 13:09:37;;;;;;;12.85;10.45;;;17.20;99.90;;;;;;4589657;19;20086;-28
2022/10/25 13:11:08;;;;;;;12.85;11.63;;;17.10;99.90;;;;;;4587902;19;20035;-27
2022/10/25 13:12:39;;;;;;;14.68;11.70;;;17.20;99.90;;;;;;4589957;19;20051;-27
2022/10/25 13:14:51;;;;;;;13.68;12.27;;;17.10;99.90;;;;;;4589842;19;20494;-28
2022/10/25 13:16:24;;;;;;;10.65;8.77;;;17.10;99.90;;;;;;4589932;19;20079;-27
2022/10/25 13:18:03;;;;;;;10.30;7.97;;;17.00;99.90;;;;;;4588271;19;20361;-28
2022/10/25 13:19:35;;;;;;;9.45;7.45;;;17.00;99.90;;;;;;4589173;19;20016;-28
2022/10/25 13:21:16;;;;;;;19.17;12.40;;;17.00;99.90;;;;;;4590052;19;20002;-28
2022/10/25 13:22:47;;;;;;;10.60;8.70;;;17.00;99.90;;;;;;4589994;19;20044;-28
2022/10/25 13:24:37;;;;;;;10.20;6.95;;;17.00;99.90;;;;;;4588929;19;20116;-27
2022/10/25 17:00:50;;;;;;;22.63;19.30;;;16.80;99.90;;;;;;4590064;19;20488;-28
2022/10/25 17:02:23;;;;;;;21.50;17.85;;;16.80;99.90;;;;;;4593077;19;20015;-27
2022/10/25 17:03:55;;;;;;;21.05;16.77;;;16.90;99.90;;;;;;4591554;19;20464;-27
2022/10/25 17:05:33;;;;;;;22.48;18.73;;;16.90;99.90;;;;;;4592294;19;20062;-28
2022/10/25 17:07:04;;;;;;;18.95;16.15;;;16.80;99.90;;;;;;4591675;19;20018;-28
2022/10/25 17:08:35;;;;;;;19.42;16.60;;;16.80;99.90;;;;;;4591789;19;20014;-28
2022/10/25 17:10:07;;;;;;;19.88;15.18;;;16.90;99.90;;;;;;4588504;19;20330;-27
2022/10/25 17:11:38;;;;;;;18.73;14.88;;;16.90;99.90;;;;;;4591179;19;20023;-27
2022/10/25 17:13:14;;;;;;;17.67;14.65;;;16.90;99.90;;;;;;4589363;19;20018;-27
2022/10/25 17:14:45;;;;;;;19.40;15.65;;;16.90;99.90;;;;;;4591147;19;20014;-27
2022/10/25 17:16:16;;;;;;;22.38;17.15;;;17.00;99.90;;;;;;4590618;19;20017;-28
2022/10/25 17:17:47;;;;;;;21.00;16.30;;;16.90;99.90;;;;;;4590309;19;20021;-27
2022/10/25 17:19:18;;;;;;;22.30;17.20;;;16.90;99.90;;;;;;4590244;19;20006;-27
2022/10/25 17:20:50;;;;;;;22.70;17.88;;;16.90;99.90;;;;;;4591720;19;20019;-28
2022/10/25 17:22:21;;;;;;;20.92;16.40;;;16.90;99.90;;;;;;4590500;19;20007;-28
2022/10/25 17:23:53;;;;;;;21.45;16.23;;;16.90;99.90;;;;;;4591102;19;20512;-29
2022/10/25 17:25:24;;;;;;;22.67;17.90;;;16.90;99.90;;;;;;4590271;19;20523;-28
2022/10/25 17:26:58;;;;;;;23.55;18.73;;;17.00;99.90;;;;;;4590733;19;19998;-28
2022/10/25 17:28:29;;;;;;;25.40;17.90;;;16.90;99.90;;;;;;4590403;19;20018;-28
2022/10/25 17:30:00;;;;;;;23.60;17.80;;;16.90;99.90;;;;;;4590978;19;20014;-28
2022/10/25 17:31:31;;;;;;;26.38;18.42;;;16.90;99.90;;;;;;4591861;19;20490;-28
2022/10/25 17:33:02;;;;;;;27.92;20.52;;;16.90;99.90;;;;;;4592104;19;19998;-29
2022/10/25 17:34:35;;;;;;;25.08;19.63;;;16.90;99.90;;;;;;4590694;19;20039;-28
2022/10/25 17:36:13;;;;;;;21.80;17.60;;;16.90;99.90;;;;;;4590139;19;20022;-27
2022/10/25 17:37:45;;;;;;;22.70;17.52;;;16.90;99.90;;;;;;4590603;19;20021;-28
2022/10/25 17:39:16;;;;;;;21.67;16.60;;;16.90;99.90;;;;;;4591679;19;20078;-28
2022/10/25 17:40:47;;;;;;;22.05;17.55;;;16.90;99.90;;;;;;4591448;19;20011;-28
2022/10/25 17:42:19;;;;;;;22.00;16.02;;;16.90;99.90;;;;;;4591259;19;20014;-28
2022/10/25 17:43:50;;;;;;;19.40;16.48;;;16.90;99.90;;;;;;4591550;19;20010;-28
2022/10/25 17:45:21;;;;;;;17.27;15.38;;;16.90;99.90;;;;;;4590178;19;20442;-28
2022/10/25 17:46:52;;;;;;;18.42;15.90;;;16.90;99.90;;;;;;4588804;19;20007;-28
2022/10/25 17:48:23;;;;;;;19.35;16.90;;;16.90;99.90;;;;;;4591131;19;20323;-28